KIRK/IRK METAR and TAF weather

Enter ICAO airport designator
Station Type Date Time Source
KIRK METAR 2019/06/19 05:55 UTC NOAA

KIRK 190555Z AUTO 09004KT 10SM FEW120 21/17 A2983 RMK AO2 SLP098 T02110172 10261 20200 402720139 58009 $


Station Type Date Time Source
KIRK Decoded METAR 2019/06/19 05:55 UTC NOAA

KIRKSVILLE REGIONAL AIRPORT , MO, United States (KIRK) 40-06N 092-33W 293M
Jun 19, 2019 - 01:55 AM EDT / 2019.06.19 0555 UTC
Wind: from the E (090 degrees) at 5 MPH (4 KT):0
Visibility: 10 mile(s):0
Sky conditions: mostly clear
Temperature: 70.0 F (21.1 C)
Dew Point: 63.0 F (17.2 C)
Relative Humidity: 78%
Pressure (altimeter): 29.83 in. Hg (1010 hPa)
Pressure tendency: 0.03 inches (0.9 hPa) lower than three hours ago
ob: KIRK 190555Z AUTO 09004KT 10SM FEW120 21/17 A2983 RMK AO2 SLP098 T02110172 10261 20200 402720139 58009
cycle: 6

Station Type Date Time Source
KIRK TAF UTC NOAA

Error!

Example: see airport list